Shideler, Indiana
Current Conditions -  °F | °C
As of 12:53 PM on Friday 28 Nov 2014 (Local Time) from KMIE Reporting Station
Scattered Clouds Scattered Clouds  
Wind Chill: 20°   Ceiling: Unl
Heat Index: 29°   Visibility: 10mi
Dew Point: 18°   Wind: 10mph
Humidity: 64%   Direction: 190°S
Pressure: 30.23"   Gusts: NA
Location:  40.3453°N, 85.3353°W
Report Text: KMIE 281753Z 19009KT 10SM SCT038 M02/M08 A3023 RMK AO2 PRESFR SLP246 T10171078 11017 21056 58033
Loading
Personal Weather Stations






























Interactive Weather Map New forecast layout! Learn more

10-Day Weather Forecast

Advertisements
Track Severe Weather on mobile